createdAt,value
2019-04-01T00:01:36.062Z,4.00
2019-04-01T00:04:05.530Z,4.00
2019-04-01T00:06:35.093Z,4.00
2019-04-01T00:09:05.832Z,4.00
2019-04-01T00:11:35.373Z,3.90
2019-04-01T00:14:05.053Z,3.70
2019-04-01T00:16:34.675Z,3.80
2019-04-01T00:19:04.199Z,3.80
2019-04-01T00:21:33.805Z,3.70
2019-04-01T00:24:03.281Z,3.70
2019-04-01T00:26:32.762Z,3.60
2019-04-01T00:29:02.293Z,3.60
2019-04-01T00:31:31.762Z,3.50
2019-04-01T00:34:01.230Z,3.50
2019-04-01T00:36:30.770Z,3.60
2019-04-01T00:39:00.277Z,3.50
2019-04-01T00:41:29.809Z,3.50
2019-04-01T00:44:05.805Z,3.40
2019-04-01T00:46:35.313Z,3.30
2019-04-01T00:49:04.882Z,3.10
2019-04-01T00:51:35.615Z,3.20
2019-04-01T00:54:05.101Z,3.10
2019-04-01T00:56:34.735Z,2.90
2019-04-01T00:59:04.249Z,2.90
2019-04-01T01:01:33.733Z,3.00
2019-04-01T01:04:03.840Z,3.00
2019-04-01T01:06:33.343Z,3.00
2019-04-01T01:09:04.386Z,2.90
2019-04-01T01:11:33.929Z,2.70
2019-04-01T01:14:03.454Z,2.80
2019-04-01T01:16:32.962Z,2.80
2019-04-01T01:21:32.871Z,2.80
2019-04-01T01:24:02.431Z,2.70
2019-04-01T01:26:31.984Z,2.60
2019-04-01T01:29:01.474Z,2.50
2019-04-01T01:31:30.958Z,2.50
2019-04-01T01:34:00.476Z,2.40
2019-04-01T01:36:29.921Z,2.30
2019-04-01T01:38:59.415Z,2.50
2019-04-01T01:41:28.918Z,2.50
2019-04-01T01:43:58.482Z,2.40
2019-04-01T01:46:27.943Z,2.40
2019-04-01T01:48:57.466Z,2.40
2019-04-01T01:51:26.971Z,2.50
2019-04-01T01:53:57.613Z,2.30
2019-04-01T01:56:27.102Z,2.20
2019-04-01T01:58:56.559Z,2.50
2019-04-01T02:01:26.060Z,2.40
2019-04-01T02:03:55.605Z,2.00
2019-04-01T02:06:25.128Z,2.00
2019-04-01T02:08:54.675Z,2.10
2019-04-01T02:11:24.188Z,2.00
2019-04-01T02:13:53.700Z,2.10
2019-04-01T02:16:23.175Z,2.10
2019-04-01T02:18:52.694Z,2.30
2019-04-01T02:21:22.202Z,2.40
2019-04-01T02:23:51.712Z,2.50
2019-04-01T02:26:21.246Z,2.60
2019-04-01T02:28:50.737Z,2.40
2019-04-01T02:31:20.237Z,2.40
2019-04-01T02:33:49.754Z,2.40
2019-04-01T02:36:19.220Z,2.50
2019-04-01T02:38:48.699Z,2.50
2019-04-01T02:41:18.214Z,2.50
2019-04-01T02:43:47.689Z,2.40
2019-04-01T02:46:18.236Z,2.10
2019-04-01T02:48:47.790Z,2.10
2019-04-01T02:51:17.319Z,2.10
2019-04-01T02:53:46.815Z,2.00
2019-04-01T02:56:16.295Z,1.90
2019-04-01T02:58:45.816Z,1.90
2019-04-01T03:01:15.308Z,2.00
2019-04-01T03:03:44.826Z,2.10
2019-04-01T03:06:14.314Z,2.10
2019-04-01T03:08:43.791Z,2.00
2019-04-01T03:11:13.249Z,2.00
2019-04-01T03:13:42.740Z,2.20
2019-04-01T03:16:12.206Z,2.20
2019-04-01T03:18:41.714Z,2.00
2019-04-01T03:21:11.219Z,2.00
2019-04-01T03:23:40.791Z,2.00
2019-04-01T03:26:10.260Z,1.80
2019-04-01T03:28:39.736Z,1.80
2019-04-01T03:31:09.217Z,1.80
2019-04-01T03:33:39.792Z,2.00
2019-04-01T03:36:09.247Z,1.80
2019-04-01T03:38:38.834Z,1.90
2019-04-01T03:41:08.360Z,1.80
2019-04-01T03:43:37.887Z,1.80
2019-04-01T03:46:07.324Z,1.80
2019-04-01T03:48:36.808Z,1.80
2019-04-01T03:51:06.581Z,1.60
2019-04-01T03:53:36.070Z,1.50
2019-04-01T03:56:05.562Z,1.50
2019-04-01T03:58:35.004Z,1.60
2019-04-01T04:01:04.508Z,1.70
2019-04-01T04:03:34.019Z,1.50
2019-04-01T04:06:03.564Z,1.20
2019-04-01T04:08:33.066Z,1.20
2019-04-01T04:11:02.564Z,1.30
2019-04-01T04:13:32.023Z,1.30
2019-04-01T04:16:01.648Z,1.10
2019-04-01T04:18:31.125Z,1.20
2019-04-01T04:21:00.658Z,1.30
2019-04-01T04:23:30.137Z,1.40
2019-04-01T04:25:59.706Z,1.50
2019-04-01T04:28:29.386Z,1.50
2019-04-01T04:30:58.913Z,1.30
2019-04-01T04:33:28.546Z,1.30
2019-04-01T04:35:58.053Z,1.20
2019-04-01T04:38:29.599Z,1.20
2019-04-01T04:40:59.085Z,1.40
2019-04-01T04:43:28.583Z,1.30
2019-04-01T04:45:58.048Z,1.20
2019-04-01T04:48:27.515Z,1.00
2019-04-01T04:50:57.014Z,0.90
2019-04-01T04:53:26.483Z,0.40
2019-04-01T04:55:55.955Z,0.40
2019-04-01T04:58:25.410Z,0.80
2019-04-01T05:00:54.900Z,0.80
2019-04-01T05:03:24.438Z,0.60
2019-04-01T05:05:53.938Z,0.60
2019-04-01T05:08:23.449Z,0.70
2019-04-01T05:10:52.939Z,0.80
2019-04-01T05:13:22.438Z,0.80
2019-04-01T05:15:51.973Z,0.90
2019-04-01T05:18:21.431Z,0.90
2019-04-01T05:20:51.691Z,0.80
2019-04-01T05:23:21.698Z,1.10
2019-04-01T05:25:51.563Z,1.70
2019-04-01T05:28:23.358Z,1.60
2019-04-01T05:30:53.919Z,1.60
2019-04-01T05:33:23.910Z,1.90
2019-04-01T05:35:53.394Z,1.80
2019-04-01T05:38:22.905Z,2.20
2019-04-01T05:40:52.378Z,2.00
2019-04-01T05:43:21.882Z,1.90
2019-04-01T05:45:51.371Z,1.80
2019-04-01T05:48:20.993Z,1.80
2019-04-01T05:50:50.451Z,2.00
2019-04-01T05:53:20.273Z,2.40
2019-04-01T05:55:50.163Z,2.70
2019-04-01T05:58:19.671Z,3.20
2019-04-01T06:00:58.690Z,2.70
2019-04-01T06:03:28.169Z,3.20
2019-04-01T06:05:57.664Z,3.20
2019-04-01T06:08:27.144Z,2.50
2019-04-01T06:10:56.662Z,4.20
2019-04-01T06:13:26.201Z,3.70
2019-04-01T06:15:55.682Z,3.40
2019-04-01T06:18:25.138Z,4.00
2019-04-01T06:20:56.713Z,4.00
2019-04-01T06:23:26.215Z,4.10
2019-04-01T06:25:55.737Z,5.00
2019-04-01T06:28:25.533Z,5.60
2019-04-01T06:30:55.041Z,6.30
2019-04-01T06:33:24.527Z,5.80
2019-04-01T06:35:54.036Z,5.90
2019-04-01T06:38:23.566Z,5.40
2019-04-01T06:40:56.801Z,5.60
2019-04-01T06:43:26.421Z,5.70
2019-04-01T06:45:58.098Z,4.90
2019-04-01T06:48:28.721Z,5.40
2019-04-01T06:50:58.232Z,5.50
2019-04-01T06:53:27.790Z,4.90
2019-04-01T06:55:57.374Z,5.30
2019-04-01T06:58:26.854Z,4.90
2019-04-01T07:00:56.362Z,6.10
2019-04-01T07:03:25.973Z,7.00
2019-04-01T07:05:55.548Z,7.70
2019-04-01T07:08:25.015Z,7.00
2019-04-01T07:10:54.502Z,7.00
2019-04-01T07:13:24.063Z,6.20
2019-04-01T07:15:53.575Z,6.50
2019-04-01T07:18:23.282Z,7.00
2019-04-01T07:20:52.770Z,7.70
2019-04-01T07:23:22.375Z,7.70
2019-04-01T07:25:53.047Z,7.90
2019-04-01T07:28:22.566Z,6.30
2019-04-01T07:30:52.063Z,6.00
2019-04-01T07:33:21.538Z,6.80
2019-04-01T07:35:51.045Z,6.50
2019-04-01T07:38:20.498Z,6.40
2019-04-01T07:40:50.061Z,6.40
2019-04-01T07:43:19.583Z,6.50
2019-04-01T07:45:49.092Z,6.50
2019-04-01T07:48:18.826Z,6.70
2019-04-01T07:50:48.432Z,6.80
2019-04-01T07:53:17.943Z,6.70
2019-04-01T07:55:47.519Z,6.40
2019-04-01T07:58:17.034Z,6.70
2019-04-01T08:00:46.538Z,7.10
2019-04-01T08:03:15.993Z,7.20
2019-04-01T08:05:45.628Z,7.50
2019-04-01T08:08:15.105Z,7.20
2019-04-01T08:10:45.994Z,7.30
2019-04-01T08:13:15.473Z,6.90
2019-04-01T08:15:45.004Z,7.00
2019-04-01T08:18:14.513Z,7.40
2019-04-01T08:20:43.999Z,7.40
2019-04-01T08:23:13.553Z,7.40
2019-04-01T08:25:43.024Z,7.60
2019-04-01T08:28:12.637Z,8.00
2019-04-01T08:30:42.094Z,7.70
2019-04-01T08:33:11.611Z,8.60
2019-04-01T08:35:41.229Z,8.20
2019-04-01T08:38:10.762Z,7.60
2019-04-01T08:40:40.291Z,8.00
2019-04-01T08:43:09.801Z,7.90
2019-04-01T08:45:39.287Z,7.70
2019-04-01T08:48:08.815Z,7.80
2019-04-01T08:50:38.616Z,7.80
2019-04-01T08:53:08.151Z,8.10
2019-04-01T08:55:37.853Z,8.80
2019-04-01T08:58:07.362Z,8.40
2019-04-01T09:00:36.966Z,8.30
2019-04-01T09:03:06.459Z,8.00
2019-04-01T09:05:35.939Z,8.40
2019-04-01T09:08:05.551Z,8.40
2019-04-01T09:10:35.963Z,8.20
2019-04-01T09:13:05.455Z,8.50
2019-04-01T09:15:34.986Z,9.20
2019-04-01T09:18:04.490Z,9.80
2019-04-01T09:20:34.035Z,8.80
2019-04-01T09:23:03.516Z,9.30
2019-04-01T09:25:32.994Z,9.50
2019-04-01T09:28:02.533Z,8.90
2019-04-01T09:30:32.071Z,8.50
2019-04-01T09:33:01.560Z,9.00
2019-04-01T09:35:31.130Z,9.80
2019-04-01T09:38:00.643Z,10.30
2019-04-01T09:40:30.146Z,8.90
2019-04-01T09:42:59.767Z,9.00
2019-04-01T09:45:29.282Z,10.50
2019-04-01T09:47:58.813Z,9.30
2019-04-01T09:50:28.298Z,10.30
2019-04-01T09:52:57.817Z,9.10
2019-04-01T09:55:27.286Z,9.10
2019-04-01T09:57:57.218Z,9.50
2019-04-01T10:00:26.718Z,8.60
2019-04-01T10:02:56.248Z,9.30
2019-04-01T10:05:25.805Z,9.20
2019-04-01T10:07:55.315Z,9.30
2019-04-01T10:10:24.830Z,9.80
2019-04-01T10:12:54.374Z,10.50
2019-04-01T10:15:23.997Z,9.90
2019-04-01T10:17:53.499Z,9.80
2019-04-01T10:20:23.042Z,10.20
2019-04-01T10:22:52.566Z,10.60
2019-04-01T10:25:22.079Z,10.80
2019-04-01T10:27:51.614Z,10.80
2019-04-01T10:30:21.526Z,11.20
2019-04-01T10:32:51.065Z,10.30
2019-04-01T10:35:20.591Z,9.60
2019-04-01T10:37:50.137Z,9.20
2019-04-01T10:40:19.738Z,9.10
2019-04-01T10:42:49.223Z,10.10
2019-04-01T10:45:18.901Z,9.70
2019-04-01T10:47:48.518Z,9.80
2019-04-01T10:50:18.244Z,10.20
2019-04-01T10:52:47.754Z,10.30
2019-04-01T10:55:17.305Z,10.10
2019-04-01T10:57:46.795Z,11.50
2019-04-01T11:00:17.392Z,11.00
2019-04-01T11:02:49.842Z,10.60
2019-04-01T11:05:18.013Z,10.70
2019-04-01T11:07:47.578Z,11.20
2019-04-01T11:10:17.240Z,10.50
2019-04-01T11:12:46.700Z,9.80
2019-04-01T11:15:16.922Z,10.40
2019-04-01T11:17:46.488Z,10.40
2019-04-01T11:20:16.022Z,10.40
2019-04-01T11:22:45.598Z,10.30
2019-04-01T11:25:15.610Z,9.70
2019-04-01T11:27:45.138Z,10.30
2019-04-01T11:30:14.962Z,9.90
2019-04-01T11:32:44.519Z,10.30
2019-04-01T11:35:14.220Z,10.30
2019-04-01T11:37:43.796Z,10.80
2019-04-01T11:40:13.595Z,11.10
2019-04-01T11:42:43.211Z,11.00
2019-04-01T11:45:12.794Z,11.30
2019-04-01T11:47:42.298Z,12.00
2019-04-01T11:50:12.185Z,10.80
2019-04-01T11:52:41.651Z,10.90
2019-04-01T11:55:11.458Z,10.60
2019-04-01T11:57:41.113Z,10.70
2019-04-01T12:00:14.274Z,11.30
2019-04-01T12:02:43.847Z,11.20
2019-04-01T12:05:13.623Z,10.80
2019-04-01T12:07:43.141Z,10.80
2019-04-01T12:10:12.869Z,11.30
2019-04-01T12:12:42.389Z,11.10
2019-04-01T12:15:12.783Z,10.70
2019-04-01T12:17:42.468Z,10.60
2019-04-01T12:20:12.132Z,10.40
2019-04-01T12:22:45.486Z,10.40
2019-04-01T12:25:12.804Z,10.60
2019-04-01T12:27:42.256Z,11.30
2019-04-01T12:30:11.780Z,11.00
2019-04-01T12:32:41.329Z,12.30
2019-04-01T12:35:10.834Z,11.30
2019-04-01T12:37:40.349Z,11.50
2019-04-01T12:40:10.099Z,12.10
2019-04-01T12:42:39.588Z,11.40
2019-04-01T12:45:10.391Z,11.70
2019-04-01T12:47:42.940Z,11.50
2019-04-01T12:50:11.614Z,11.10
2019-04-01T12:52:41.165Z,11.00
2019-04-01T12:55:11.071Z,11.00
2019-04-01T12:57:40.614Z,11.70
2019-04-01T13:00:12.757Z,11.80
2019-04-01T13:02:42.319Z,11.30
2019-04-01T13:05:11.939Z,11.20
2019-04-01T13:07:41.438Z,11.30
2019-04-01T13:10:11.042Z,11.70
2019-04-01T13:12:40.555Z,11.70
2019-04-01T13:15:10.146Z,11.90
2019-04-01T13:17:39.695Z,11.70
2019-04-01T13:20:09.493Z,11.90
2019-04-01T13:22:39.006Z,11.50
2019-04-01T13:25:08.534Z,11.10
2019-04-01T13:27:38.056Z,11.50
2019-04-01T13:30:08.295Z,11.60
2019-04-01T13:32:37.808Z,11.60
2019-04-01T13:35:08.163Z,11.70
2019-04-01T13:37:37.629Z,11.40
2019-04-01T13:40:08.324Z,11.40
2019-04-01T13:42:37.858Z,11.60
2019-04-01T13:45:07.505Z,11.10
2019-04-01T13:47:37.026Z,11.50
2019-04-01T13:50:06.935Z,11.60
2019-04-01T13:52:36.485Z,11.50
2019-04-01T13:55:06.454Z,11.80
2019-04-01T13:57:35.947Z,11.60
2019-04-01T14:00:06.147Z,11.50
2019-04-01T14:02:35.643Z,11.40
2019-04-01T14:05:06.251Z,11.80
2019-04-01T14:07:35.939Z,12.00
2019-04-01T14:10:06.229Z,11.80
2019-04-01T14:12:35.738Z,11.60
2019-04-01T14:15:05.742Z,11.70
2019-04-01T14:17:35.278Z,11.80
2019-04-01T14:20:05.094Z,11.70
2019-04-01T14:22:34.616Z,11.70
2019-04-01T14:25:07.161Z,11.30
2019-04-01T14:27:35.459Z,11.30
2019-04-01T14:30:05.818Z,11.50
2019-04-01T14:32:35.600Z,11.60
2019-04-01T14:35:06.283Z,11.60
2019-04-01T14:37:35.821Z,11.90
2019-04-01T14:40:06.140Z,11.90
2019-04-01T14:42:37.228Z,11.70
2019-04-01T14:45:08.822Z,11.60
2019-04-01T14:47:55.538Z,11.50
2019-04-01T14:50:09.925Z,11.70
2019-04-01T14:52:41.180Z,11.70
2019-04-01T14:55:10.997Z,11.80
2019-04-01T14:57:40.511Z,11.60
2019-04-01T15:00:12.930Z,11.70
2019-04-01T15:02:42.562Z,11.60
2019-04-01T15:05:12.459Z,11.50
2019-04-01T15:07:41.946Z,11.70
2019-04-01T15:10:11.685Z,11.70
2019-04-01T15:12:41.178Z,11.70
2019-04-01T15:15:10.921Z,11.90
2019-04-01T15:17:40.400Z,11.90
2019-04-01T15:20:10.235Z,11.80
2019-04-01T15:22:39.711Z,11.60
2019-04-01T15:25:09.208Z,11.60
2019-04-01T15:27:38.745Z,11.80
2019-04-01T15:30:09.004Z,12.10
2019-04-01T15:32:38.528Z,12.00
2019-04-01T15:35:08.207Z,11.70
2019-04-01T15:37:37.739Z,11.70
2019-04-01T15:40:07.931Z,11.60
2019-04-01T15:42:37.467Z,11.50
2019-04-01T15:45:07.362Z,11.70
2019-04-01T15:47:38.310Z,11.70
2019-04-01T15:50:09.373Z,11.80
2019-04-01T15:52:39.118Z,11.80
2019-04-01T15:55:08.703Z,11.60
2019-04-01T15:57:38.239Z,11.60
2019-04-01T16:00:07.906Z,11.60
2019-04-01T16:02:37.451Z,11.50
2019-04-01T16:05:07.476Z,11.60
2019-04-01T16:07:36.998Z,11.40
2019-04-01T16:10:07.155Z,11.70
2019-04-01T16:12:36.668Z,11.70
2019-04-01T16:15:06.652Z,11.50
2019-04-01T16:17:36.159Z,11.60
2019-04-01T16:20:06.311Z,11.60
2019-04-01T16:22:35.795Z,11.30
2019-04-01T16:25:05.744Z,11.30
2019-04-01T16:27:35.279Z,11.30
2019-04-01T16:30:05.086Z,11.20
2019-04-01T16:32:34.683Z,11.20
2019-04-01T16:35:04.479Z,11.30
2019-04-01T16:37:33.998Z,11.20
2019-04-01T16:40:05.820Z,11.40
2019-04-01T16:42:34.829Z,11.20
2019-04-01T16:45:06.269Z,11.30
2019-04-01T16:47:35.849Z,11.30
2019-04-01T16:50:07.046Z,11.20
2019-04-01T16:52:36.577Z,11.20
2019-04-01T16:55:07.807Z,11.20
2019-04-01T16:57:37.330Z,11.10
2019-04-01T17:00:08.448Z,11.00
2019-04-01T17:02:37.993Z,10.90
2019-04-01T17:05:09.399Z,10.90
2019-04-01T17:07:38.903Z,10.90
2019-04-01T17:10:08.620Z,10.70
2019-04-01T17:12:38.107Z,10.70
2019-04-01T17:15:08.456Z,10.60
2019-04-01T17:17:37.957Z,10.60
2019-04-01T17:20:07.731Z,10.50
2019-04-01T17:22:37.246Z,10.50
2019-04-01T17:25:07.062Z,10.40
2019-04-01T17:27:36.575Z,10.30
2019-04-01T17:30:07.919Z,10.20
2019-04-01T17:32:37.422Z,10.10
2019-04-01T17:35:07.098Z,10.00
2019-04-01T17:37:37.982Z,10.00
2019-04-01T17:40:10.070Z,9.90
2019-04-01T17:42:39.566Z,9.90
2019-04-01T17:45:27.441Z,9.90
2019-04-01T17:48:00.208Z,9.70
2019-04-01T17:50:29.055Z,9.70
2019-04-01T17:52:58.697Z,9.60
2019-04-01T17:55:28.158Z,9.50
2019-04-01T17:57:57.731Z,9.50
2019-04-01T18:00:28.410Z,9.40
2019-04-01T18:02:58.064Z,9.30
2019-04-01T18:05:27.680Z,9.20
2019-04-01T18:07:57.244Z,9.20
2019-04-01T18:10:28.141Z,9.10
2019-04-01T18:12:57.836Z,9.10
2019-04-01T18:15:27.572Z,9.00
2019-04-01T18:17:57.180Z,8.90
2019-04-01T18:20:26.886Z,8.90
2019-04-01T18:22:57.170Z,8.80
2019-04-01T18:25:27.009Z,8.70
2019-04-01T18:27:56.647Z,8.60
2019-04-01T18:30:26.358Z,8.60
2019-04-01T18:32:55.910Z,8.60
2019-04-01T18:35:25.752Z,8.50
2019-04-01T18:37:55.569Z,8.40
2019-04-01T18:40:32.823Z,8.50
2019-04-01T18:42:56.455Z,8.40
2019-04-01T18:45:25.985Z,8.30
2019-04-01T18:47:55.460Z,8.30
2019-04-01T18:50:25.188Z,8.10
2019-04-01T18:52:54.874Z,8.10
2019-04-01T18:55:24.528Z,8.20
2019-04-01T18:57:54.107Z,8.10
2019-04-01T19:00:23.785Z,7.90
2019-04-01T19:02:55.582Z,7.90
2019-04-01T19:05:24.659Z,7.90
2019-04-01T19:07:54.202Z,8.00
2019-04-01T19:10:24.017Z,7.90
2019-04-01T19:13:05.277Z,7.80
2019-04-01T19:15:26.083Z,7.90
2019-04-01T19:17:56.545Z,7.70
2019-04-01T19:20:26.368Z,7.90
2019-04-01T19:22:56.109Z,7.70
2019-04-01T19:25:26.201Z,7.50
2019-04-01T19:27:56.377Z,7.60
2019-04-01T19:30:26.100Z,7.40
2019-04-01T19:32:55.767Z,7.40
2019-04-01T19:35:25.504Z,7.40
2019-04-01T19:37:56.138Z,7.30
2019-04-01T19:40:25.822Z,7.20
2019-04-01T19:42:55.462Z,7.10
2019-04-01T19:45:25.150Z,7.10
2019-04-01T19:47:57.227Z,7.00
2019-04-01T19:50:25.953Z,7.00
2019-04-01T19:52:56.407Z,7.00
2019-04-01T19:55:25.954Z,7.00
2019-04-01T19:57:56.310Z,6.90
2019-04-01T20:00:28.142Z,6.80
2019-04-01T20:02:57.287Z,6.80
2019-04-01T20:05:26.834Z,6.80
2019-04-01T20:07:56.430Z,6.80
2019-04-01T20:10:28.223Z,6.70
2019-04-01T20:12:57.153Z,6.70
2019-04-01T20:15:26.689Z,6.80
2019-04-01T20:17:56.209Z,6.70
2019-04-01T20:20:25.725Z,6.60
2019-04-01T20:22:55.288Z,6.60
2019-04-01T20:25:24.849Z,6.40
2019-04-01T20:27:54.341Z,6.30
2019-04-01T20:30:23.966Z,6.30
2019-04-01T20:32:53.437Z,6.20
2019-04-01T20:35:24.007Z,6.10
2019-04-01T20:37:53.594Z,6.00
2019-04-01T20:40:23.273Z,6.10
2019-04-01T20:42:53.662Z,6.00
2019-04-01T20:45:23.198Z,6.00
2019-04-01T20:47:52.688Z,6.00
2019-04-01T20:50:22.385Z,5.80
2019-04-01T20:52:51.906Z,5.70
2019-04-01T20:55:21.415Z,5.70
2019-04-01T20:57:50.972Z,5.60
2019-04-01T21:00:20.699Z,5.60
2019-04-01T21:02:50.201Z,5.50
2019-04-01T21:05:19.745Z,5.50
2019-04-01T21:07:49.281Z,5.50
2019-04-01T21:10:18.767Z,5.50
2019-04-01T21:12:48.420Z,5.60
2019-04-01T21:15:18.075Z,5.50
2019-04-01T21:17:47.739Z,5.40
2019-04-01T21:20:17.238Z,5.50
2019-04-01T21:22:46.793Z,5.40
2019-04-01T21:25:16.463Z,5.40
2019-04-01T21:27:46.004Z,5.40
2019-04-01T21:30:15.952Z,5.40
2019-04-01T21:32:45.731Z,5.40
2019-04-01T21:35:15.231Z,5.30
2019-04-01T21:37:44.734Z,5.30
2019-04-01T21:40:14.649Z,5.30
2019-04-01T21:42:44.184Z,5.20
2019-04-01T21:45:14.035Z,5.10
2019-04-01T21:47:43.528Z,5.20
2019-04-01T21:50:13.028Z,5.10
2019-04-01T21:52:42.515Z,5.10
2019-04-01T21:55:12.207Z,5.10
2019-04-01T21:57:41.665Z,5.00
2019-04-01T22:00:14.217Z,4.90
2019-04-01T22:02:44.538Z,5.00
2019-04-01T22:05:14.227Z,5.10
2019-04-01T22:07:43.701Z,5.00
2019-04-01T22:10:13.366Z,4.80
2019-04-01T22:12:42.814Z,4.90
2019-04-01T22:15:12.303Z,4.90
2019-04-01T22:17:41.757Z,4.90
2019-04-01T22:20:11.342Z,4.90
2019-04-01T22:22:40.799Z,4.90
2019-04-01T22:25:10.291Z,4.80
2019-04-01T22:27:39.796Z,4.70
2019-04-01T22:30:10.327Z,4.60
2019-04-01T22:32:39.791Z,4.50
2019-04-01T22:35:09.303Z,4.60
2019-04-01T22:37:38.801Z,4.50
2019-04-01T22:40:08.375Z,4.50
2019-04-01T22:42:37.887Z,4.50
2019-04-01T22:45:08.462Z,4.60
2019-04-01T22:47:38.005Z,4.50
2019-04-01T22:50:07.912Z,4.60
2019-04-01T22:52:37.402Z,4.70
2019-04-01T22:55:07.247Z,4.70
2019-04-01T22:57:36.739Z,4.70
2019-04-01T23:00:07.228Z,4.50
2019-04-01T23:02:36.692Z,4.40
2019-04-01T23:05:08.276Z,4.40
2019-04-01T23:07:37.808Z,4.30
2019-04-01T23:10:07.950Z,4.20
2019-04-01T23:12:37.410Z,4.20
2019-04-01T23:15:07.463Z,4.20
2019-04-01T23:17:38.217Z,4.20
2019-04-01T23:20:08.267Z,4.10
2019-04-01T23:22:37.727Z,4.10
2019-04-01T23:25:07.430Z,4.10
2019-04-01T23:27:36.888Z,4.20
2019-04-01T23:30:08.564Z,4.00
2019-04-01T23:32:38.070Z,4.00
2019-04-01T23:35:07.989Z,4.00
2019-04-01T23:37:38.458Z,4.00
2019-04-01T23:40:08.480Z,4.00
2019-04-01T23:42:38.295Z,4.00
2019-04-01T23:45:08.713Z,4.00
2019-04-01T23:47:38.208Z,4.10
2019-04-01T23:50:09.364Z,4.30
2019-04-01T23:52:39.415Z,4.20
2019-04-01T23:55:09.467Z,4.20
2019-04-01T23:57:38.962Z,4.10
